sensor_id;sensor_type;location;lat;lon;timestamp;pressure;altitude;pressure_sealevel;temperature;humidity
27429;BME280;14881;48.092;11.574;2022-09-09T00:01:23;95232.28;;;13.91;100.00
27429;BME280;14881;48.092;11.574;2022-09-09T00:04:00;95232.41;;;13.78;100.00
27429;BME280;14881;48.092;11.574;2022-09-09T00:06:32;95227.28;;;13.76;100.00
27429;BME280;14881;48.092;11.574;2022-09-09T00:09:08;95230.94;;;13.72;100.00
27429;BME280;14881;48.092;11.574;2022-09-09T00:11:41;95232.72;;;13.68;100.00
27429;BME280;14881;48.092;11.574;2022-09-09T00:14:16;95226.91;;;13.61;100.00
27429;BME280;14881;48.092;11.574;2022-09-09T00:16:50;95230.06;;;13.54;100.00
27429;BME280;14881;48.092;11.574;2022-09-09T00:19:22;95233.09;;;13.44;100.00
27429;BME280;14881;48.092;11.574;2022-09-09T00:21:59;95234.50;;;13.33;100.00
27429;BME280;14881;48.092;11.574;2022-09-09T00:24:38;95233.31;;;13.25;100.00
27429;BME280;14881;48.092;11.574;2022-09-09T00:27:21;95223.22;;;13.26;100.00
27429;BME280;14881;48.092;11.574;2022-09-09T00:29:53;95221.78;;;13.28;100.00
27429;BME280;14881;48.092;11.574;2022-09-09T00:32:22;95233.81;;;13.27;100.00
27429;BME280;14881;48.092;11.574;2022-09-09T00:34:54;95230.09;;;13.23;100.00
27429;BME280;14881;48.092;11.574;2022-09-09T00:37:24;95232.31;;;13.21;100.00
27429;BME280;14881;48.092;11.574;2022-09-09T00:39:58;95239.19;;;13.18;100.00
27429;BME280;14881;48.092;11.574;2022-09-09T00:42:33;95240.66;;;13.16;100.00
27429;BME280;14881;48.092;11.574;2022-09-09T00:45:19;95241.63;;;13.20;100.00
27429;BME280;14881;48.092;11.574;2022-09-09T00:47:53;95232.56;;;13.33;100.00
27429;BME280;14881;48.092;11.574;2022-09-09T00:50:35;95242.09;;;13.44;100.00
27429;BME280;14881;48.092;11.574;2022-09-09T00:53:17;95229.91;;;13.50;100.00
27429;BME280;14881;48.092;11.574;2022-09-09T00:55:55;95235.03;;;13.52;100.00
27429;BME280;14881;48.092;11.574;2022-09-09T00:58:26;95230.38;;;13.52;100.00
27429;BME280;14881;48.092;11.574;2022-09-09T01:00:57;95241.31;;;13.52;100.00
27429;BME280;14881;48.092;11.574;2022-09-09T01:03:34;95244.34;;;13.51;100.00
27429;BME280;14881;48.092;11.574;2022-09-09T01:06:11;95247.84;;;13.43;100.00
27429;BME280;14881;48.092;11.574;2022-09-09T01:08:52;95242.50;;;13.38;100.00
27429;BME280;14881;48.092;11.574;2022-09-09T01:11:33;95246.22;;;13.33;100.00
27429;BME280;14881;48.092;11.574;2022-09-09T01:14:19;95236.22;;;13.29;100.00
27429;BME280;14881;48.092;11.574;2022-09-09T01:16:50;95243.59;;;13.28;100.00
27429;BME280;14881;48.092;11.574;2022-09-09T01:19:34;95245.84;;;13.26;100.00
27429;BME280;14881;48.092;11.574;2022-09-09T01:22:13;95244.22;;;13.25;100.00
27429;BME280;14881;48.092;11.574;2022-09-09T01:24:53;95237.97;;;13.24;100.00
27429;BME280;14881;48.092;11.574;2022-09-09T01:27:24;95239.25;;;13.27;100.00
27429;BME280;14881;48.092;11.574;2022-09-09T01:29:52;95242.81;;;13.28;100.00
27429;BME280;14881;48.092;11.574;2022-09-09T01:32:39;95242.31;;;13.26;100.00
27429;BME280;14881;48.092;11.574;2022-09-09T01:35:12;95238.28;;;13.23;100.00
27429;BME280;14881;48.092;11.574;2022-09-09T01:37:42;95239.88;;;13.24;100.00
27429;BME280;14881;48.092;11.574;2022-09-09T01:40:10;95245.53;;;13.28;100.00
27429;BME280;14881;48.092;11.574;2022-09-09T01:42:39;95239.13;;;13.32;100.00
27429;BME280;14881;48.092;11.574;2022-09-09T01:45:07;95237.38;;;13.36;100.00
27429;BME280;14881;48.092;11.574;2022-09-09T01:47:35;95243.81;;;13.40;100.00
27429;BME280;14881;48.092;11.574;2022-09-09T01:50:04;95240.28;;;13.40;100.00
27429;BME280;14881;48.092;11.574;2022-09-09T01:52:37;95236.25;;;13.37;100.00
27429;BME280;14881;48.092;11.574;2022-09-09T01:55:06;95237.69;;;13.35;100.00
27429;BME280;14881;48.092;11.574;2022-09-09T01:57:41;95237.22;;;13.33;100.00
27429;BME280;14881;48.092;11.574;2022-09-09T02:00:13;95240.69;;;13.24;100.00
27429;BME280;14881;48.092;11.574;2022-09-09T02:02:48;95239.84;;;13.15;100.00
27429;BME280;14881;48.092;11.574;2022-09-09T02:05:27;95235.41;;;13.06;100.00
27429;BME280;14881;48.092;11.574;2022-09-09T02:08:00;95241.28;;;12.99;100.00
27429;BME280;14881;48.092;11.574;2022-09-09T02:10:33;95236.31;;;12.93;100.00
27429;BME280;14881;48.092;11.574;2022-09-09T02:13:10;95241.25;;;12.90;100.00
27429;BME280;14881;48.092;11.574;2022-09-09T02:15:42;95228.53;;;12.86;100.00
27429;BME280;14881;48.092;11.574;2022-09-09T02:18:14;95234.16;;;12.81;100.00
27429;BME280;14881;48.092;11.574;2022-09-09T02:20:43;95234.75;;;12.78;100.00
27429;BME280;14881;48.092;11.574;2022-09-09T02:23:12;95221.75;;;12.75;100.00
27429;BME280;14881;48.092;11.574;2022-09-09T02:25:43;95223.66;;;12.74;100.00
27429;BME280;14881;48.092;11.574;2022-09-09T02:28:14;95232.16;;;12.73;100.00
27429;BME280;14881;48.092;11.574;2022-09-09T02:30:45;95237.41;;;12.69;100.00
27429;BME280;14881;48.092;11.574;2022-09-09T02:33:14;95246.19;;;12.66;100.00
27429;BME280;14881;48.092;11.574;2022-09-09T02:35:44;95241.38;;;12.63;100.00
27429;BME280;14881;48.092;11.574;2022-09-09T02:38:14;95236.25;;;12.62;100.00
27429;BME280;14881;48.092;11.574;2022-09-09T02:40:43;95236.25;;;12.62;100.00
27429;BME280;14881;48.092;11.574;2022-09-09T02:43:15;95230.00;;;12.61;100.00
27429;BME280;14881;48.092;11.574;2022-09-09T02:45:50;95219.88;;;12.62;100.00
27429;BME280;14881;48.092;11.574;2022-09-09T02:48:23;95229.19;;;12.61;100.00
27429;BME280;14881;48.092;11.574;2022-09-09T02:50:55;95229.19;;;12.61;100.00
27429;BME280;14881;48.092;11.574;2022-09-09T02:53:32;95234.13;;;12.59;100.00
27429;BME280;14881;48.092;11.574;2022-09-09T02:56:04;95231.09;;;12.60;100.00
27429;BME280;14881;48.092;11.574;2022-09-09T02:58:35;95233.31;;;12.58;100.00
27429;BME280;14881;48.092;11.574;2022-09-09T03:01:04;95229.00;;;12.57;100.00
27429;BME280;14881;48.092;11.574;2022-09-09T03:03:32;95226.25;;;12.57;100.00
27429;BME280;14881;48.092;11.574;2022-09-09T03:06:00;95223.84;;;12.55;100.00
27429;BME280;14881;48.092;11.574;2022-09-09T03:08:28;95225.16;;;12.58;100.00
27429;BME280;14881;48.092;11.574;2022-09-09T03:10:58;95226.75;;;12.59;100.00
27429;BME280;14881;48.092;11.574;2022-09-09T03:13:27;95230.00;;;12.61;100.00
27429;BME280;14881;48.092;11.574;2022-09-09T03:15:57;95209.28;;;12.60;100.00
27429;BME280;14881;48.092;11.574;2022-09-09T03:18:25;95217.47;;;12.60;100.00
27429;BME280;14881;48.092;11.574;2022-09-09T03:20:54;95222.91;;;12.60;100.00
27429;BME280;14881;48.092;11.574;2022-09-09T03:23:22;95223.84;;;12.55;100.00
27429;BME280;14881;48.092;11.574;2022-09-09T03:25:50;95216.59;;;12.51;100.00
27429;BME280;14881;48.092;11.574;2022-09-09T03:28:18;95220.88;;;12.43;100.00
27429;BME280;14881;48.092;11.574;2022-09-09T03:30:47;95225.63;;;12.38;100.00
27429;BME280;14881;48.092;11.574;2022-09-09T03:33:16;95226.84;;;12.32;100.00
27429;BME280;14881;48.092;11.574;2022-09-09T03:35:45;95226.16;;;12.26;100.00
27429;BME280;14881;48.092;11.574;2022-09-09T03:38:15;95218.09;;;12.21;100.00
27429;BME280;14881;48.092;11.574;2022-09-09T03:40:48;95224.25;;;12.13;100.00
27429;BME280;14881;48.092;11.574;2022-09-09T03:43:16;95218.44;;;12.06;100.00
27429;BME280;14881;48.092;11.574;2022-09-09T03:45:45;95217.75;;;12.00;100.00
27429;BME280;14881;48.092;11.574;2022-09-09T03:48:14;95226.22;;;11.99;100.00
27429;BME280;14881;48.092;11.574;2022-09-09T03:50:47;95221.06;;;11.97;100.00
27429;BME280;14881;48.092;11.574;2022-09-09T03:53:17;95233.06;;;11.96;100.00
27429;BME280;14881;48.092;11.574;2022-09-09T03:55:45;95220.47;;;12.00;100.00
27429;BME280;14881;48.092;11.574;2022-09-09T03:58:14;95221.47;;;12.04;100.00
27429;BME280;14881;48.092;11.574;2022-09-09T04:00:41;95213.00;;;12.06;100.00
27429;BME280;14881;48.092;11.574;2022-09-09T04:03:13;95206.94;;;12.09;100.00
27429;BME280;14881;48.092;11.574;2022-09-09T04:05:41;95217.53;;;12.10;100.00
27429;BME280;14881;48.092;11.574;2022-09-09T04:08:11;95215.28;;;12.12;100.00
27429;BME280;14881;48.092;11.574;2022-09-09T04:10:38;95216.09;;;12.13;100.00
27429;BME280;14881;48.092;11.574;2022-09-09T04:13:06;95214.19;;;12.13;100.00
27429;BME280;14881;48.092;11.574;2022-09-09T04:15:34;95208.41;;;12.15;100.00
27429;BME280;14881;48.092;11.574;2022-09-09T04:18:05;95200.56;;;12.13;100.00
27429;BME280;14881;48.092;11.574;2022-09-09T04:23:28;95202.47;;;12.13;100.00
27429;BME280;14881;48.092;11.574;2022-09-09T04:25:58;95197.16;;;12.08;100.00
27429;BME280;14881;48.092;11.574;2022-09-09T04:28:28;95195.34;;;12.03;100.00
27429;BME280;14881;48.092;11.574;2022-09-09T04:30:56;95178.63;;;11.96;100.00
27429;BME280;14881;48.092;11.574;2022-09-09T04:33:24;95191.25;;;11.92;100.00
27429;BME280;14881;48.092;11.574;2022-09-09T04:35:56;95191.56;;;11.91;100.00
27429;BME280;14881;48.092;11.574;2022-09-09T04:38:25;95190.53;;;11.87;100.00
27429;BME280;14881;48.092;11.574;2022-09-09T04:41:00;95190.94;;;11.80;100.00
27429;BME280;14881;48.092;11.574;2022-09-09T04:43:28;95194.31;;;11.77;100.00
27429;BME280;14881;48.092;11.574;2022-09-09T04:45:57;95191.16;;;11.70;100.00
27429;BME280;14881;48.092;11.574;2022-09-09T04:48:25;95187.09;;;11.67;100.00
27429;BME280;14881;48.092;11.574;2022-09-09T04:50:55;95191.03;;;11.61;100.00
27429;BME280;14881;48.092;11.574;2022-09-09T04:53:23;95192.94;;;11.61;100.00
27429;BME280;14881;48.092;11.574;2022-09-09T04:55:52;95188.31;;;11.61;100.00
27429;BME280;14881;48.092;11.574;2022-09-09T04:58:23;95183.69;;;11.62;100.00
27429;BME280;14881;48.092;11.574;2022-09-09T05:00:51;95192.25;;;11.69;100.00
27429;BME280;14881;48.092;11.574;2022-09-09T05:03:19;95189.13;;;11.75;100.00
27429;BME280;14881;48.092;11.574;2022-09-09T05:05:46;95193.16;;;11.78;100.00
27429;BME280;14881;48.092;11.574;2022-09-09T05:08:14;95200.56;;;11.77;100.00
27429;BME280;14881;48.092;11.574;2022-09-09T05:10:42;95204.56;;;11.80;100.00
27429;BME280;14881;48.092;11.574;2022-09-09T05:13:10;95209.00;;;11.90;100.00
27429;BME280;14881;48.092;11.574;2022-09-09T05:15:39;95197.38;;;11.98;100.00
27429;BME280;14881;48.092;11.574;2022-09-09T05:18:07;95203.22;;;12.05;100.00
27429;BME280;14881;48.092;11.574;2022-09-09T05:20:35;95206.94;;;12.09;100.00
27429;BME280;14881;48.092;11.574;2022-09-09T05:23:02;95213.69;;;12.11;100.00
27429;BME280;14881;48.092;11.574;2022-09-09T05:25:30;95213.50;;;12.08;100.00
27429;BME280;14881;48.092;11.574;2022-09-09T05:27:58;95209.06;;;12.12;100.00
27429;BME280;14881;48.092;11.574;2022-09-09T05:30:26;95209.84;;;12.12;100.00
27429;BME280;14881;48.092;11.574;2022-09-09T05:32:56;95211.84;;;12.20;100.00
27429;BME280;14881;48.092;11.574;2022-09-09T05:35:24;95204.69;;;12.25;100.00
27429;BME280;14881;48.092;11.574;2022-09-09T05:37:52;95199.28;;;12.33;100.00
27429;BME280;14881;48.092;11.574;2022-09-09T05:40:20;95208.16;;;12.39;100.00
27429;BME280;14881;48.092;11.574;2022-09-09T05:42:51;95214.00;;;12.46;100.00
27429;BME280;14881;48.092;11.574;2022-09-09T05:45:19;95214.34;;;12.53;100.00
27429;BME280;14881;48.092;11.574;2022-09-09T05:47:51;95211.81;;;12.57;100.00
27429;BME280;14881;48.092;11.574;2022-09-09T05:50:21;95201.44;;;12.59;100.00
27429;BME280;14881;48.092;11.574;2022-09-09T05:52:49;95200.50;;;12.63;100.00
27429;BME280;14881;48.092;11.574;2022-09-09T05:55:17;95200.56;;;12.72;100.00
27429;BME280;14881;48.092;11.574;2022-09-09T05:57:48;95209.13;;;12.79;100.00
27429;BME280;14881;48.092;11.574;2022-09-09T06:00:16;95212.69;;;12.88;100.00
27429;BME280;14881;48.092;11.574;2022-09-09T06:02:50;95218.50;;;12.95;100.00
27429;BME280;14881;48.092;11.574;2022-09-09T06:05:19;95227.72;;;13.08;100.00
27429;BME280;14881;48.092;11.574;2022-09-09T06:07:53;95219.97;;;13.23;100.00
27429;BME280;14881;48.092;11.574;2022-09-09T06:10:21;95218.28;;;13.36;100.00
27429;BME280;14881;48.092;11.574;2022-09-09T06:12:52;95217.22;;;13.54;100.00
27429;BME280;14881;48.092;11.574;2022-09-09T06:15:20;95222.56;;;13.68;100.00
27429;BME280;14881;48.092;11.574;2022-09-09T06:17:54;95219.75;;;13.82;100.00
27429;BME280;14881;48.092;11.574;2022-09-09T06:20:21;95211.25;;;13.92;100.00
27429;BME280;14881;48.092;11.574;2022-09-09T06:22:49;95211.59;;;13.99;100.00
27429;BME280;14881;48.092;11.574;2022-09-09T06:25:18;95209.66;;;14.08;100.00
27429;BME280;14881;48.092;11.574;2022-09-09T06:27:48;95207.59;;;14.14;100.00
27429;BME280;14881;48.092;11.574;2022-09-09T06:30:17;95213.38;;;14.21;100.00
27429;BME280;14881;48.092;11.574;2022-09-09T06:32:45;95207.44;;;14.27;100.00
27429;BME280;14881;48.092;11.574;2022-09-09T06:35:13;95207.78;;;14.35;100.00
27429;BME280;14881;48.092;11.574;2022-09-09T06:37:44;95203.78;;;14.41;100.00
27429;BME280;14881;48.092;11.574;2022-09-09T06:40:12;95206.38;;;14.46;100.00
27429;BME280;14881;48.092;11.574;2022-09-09T06:42:41;95201.56;;;14.51;100.00
27429;BME280;14881;48.092;11.574;2022-09-09T06:45:10;95215.84;;;14.57;100.00
27429;BME280;14881;48.092;11.574;2022-09-09T06:47:38;95215.84;;;14.66;100.00
27429;BME280;14881;48.092;11.574;2022-09-09T06:50:06;95217.13;;;14.77;100.00
27429;BME280;14881;48.092;11.574;2022-09-09T06:52:34;95225.34;;;14.85;100.00
27429;BME280;14881;48.092;11.574;2022-09-09T06:55:03;95216.31;;;14.93;100.00
27429;BME280;14881;48.092;11.574;2022-09-09T06:57:31;95215.19;;;15.03;100.00
27429;BME280;14881;48.092;11.574;2022-09-09T07:00:06;95213.22;;;15.12;100.00
27429;BME280;14881;48.092;11.574;2022-09-09T07:02:34;95225.94;;;15.17;100.00
27429;BME280;14881;48.092;11.574;2022-09-09T07:05:06;95219.16;;;15.23;100.00
27429;BME280;14881;48.092;11.574;2022-09-09T07:07:34;95221.56;;;15.24;100.00
27429;BME280;14881;48.092;11.574;2022-09-09T07:10:03;95226.53;;;15.31;100.00
27429;BME280;14881;48.092;11.574;2022-09-09T07:12:31;95216.06;;;15.33;100.00
27429;BME280;14881;48.092;11.574;2022-09-09T07:14:59;95223.31;;;15.29;100.00
27429;BME280;14881;48.092;11.574;2022-09-09T07:17:28;95217.03;;;15.28;100.00
27429;BME280;14881;48.092;11.574;2022-09-09T07:19:56;95223.97;;;15.26;100.00
27429;BME280;14881;48.092;11.574;2022-09-09T07:22:24;95228.00;;;15.28;100.00
27429;BME280;14881;48.092;11.574;2022-09-09T07:24:51;95244.09;;;15.30;100.00
27429;BME280;14881;48.092;11.574;2022-09-09T07:27:19;95261.00;;;15.32;100.00
27429;BME280;14881;48.092;11.574;2022-09-09T07:29:47;95251.97;;;15.40;100.00
27429;BME280;14881;48.092;11.574;2022-09-09T07:32:15;95261.09;;;15.61;100.00
27429;BME280;14881;48.092;11.574;2022-09-09T07:34:44;95260.28;;;15.70;100.00
27429;BME280;14881;48.092;11.574;2022-09-09T07:37:12;95262.50;;;15.76;100.00
27429;BME280;14881;48.092;11.574;2022-09-09T07:39:40;95262.47;;;15.85;100.00
27429;BME280;14881;48.092;11.574;2022-09-09T07:42:08;95263.28;;;15.85;100.00
27429;BME280;14881;48.092;11.574;2022-09-09T07:44:38;95266.44;;;15.96;100.00
27429;BME280;14881;48.092;11.574;2022-09-09T07:47:06;95268.97;;;16.10;100.00
27429;BME280;14881;48.092;11.574;2022-09-09T07:49:33;95269.09;;;16.13;100.00
27429;BME280;14881;48.092;11.574;2022-09-09T07:52:03;95271.00;;;16.21;100.00
27429;BME280;14881;48.092;11.574;2022-09-09T07:54:35;95275.81;;;16.24;100.00
27429;BME280;14881;48.092;11.574;2022-09-09T07:57:03;95277.44;;;16.25;100.00
27429;BME280;14881;48.092;11.574;2022-09-09T07:59:31;95279.16;;;16.30;100.00
27429;BME280;14881;48.092;11.574;2022-09-09T08:01:59;95270.75;;;16.35;100.00
27429;BME280;14881;48.092;11.574;2022-09-09T08:04:28;95272.66;;;16.43;100.00
27429;BME280;14881;48.092;11.574;2022-09-09T08:06:58;95272.44;;;16.48;100.00
27429;BME280;14881;48.092;11.574;2022-09-09T08:09:27;95275.81;;;16.54;100.00
27429;BME280;14881;48.092;11.574;2022-09-09T08:11:56;95274.00;;;16.58;100.00
27429;BME280;14881;48.092;11.574;2022-09-09T08:14:25;95277.19;;;16.68;100.00
27429;BME280;14881;48.092;11.574;2022-09-09T08:16:53;95279.72;;;16.74;100.00
27429;BME280;14881;48.092;11.574;2022-09-09T08:19:21;95287.69;;;16.87;100.00
27429;BME280;14881;48.092;11.574;2022-09-09T08:21:49;95298.94;;;16.94;100.00
27429;BME280;14881;48.092;11.574;2022-09-09T08:24:17;95303.56;;;17.02;100.00
27429;BME280;14881;48.092;11.574;2022-09-09T08:26:48;95291.44;;;17.03;100.00
27429;BME280;14881;48.092;11.574;2022-09-09T08:29:16;95292.28;;;17.16;100.00
27429;BME280;14881;48.092;11.574;2022-09-09T08:31:45;95297.03;;;17.28;100.00
27429;BME280;14881;48.092;11.574;2022-09-09T08:34:14;95302.91;;;17.38;100.00
27429;BME280;14881;48.092;11.574;2022-09-09T08:36:43;95306.41;;;17.48;100.00
27429;BME280;14881;48.092;11.574;2022-09-09T08:39:13;95302.78;;;17.35;100.00
27429;BME280;14881;48.092;11.574;2022-09-09T08:42:20;95303.69;;;17.27;100.00
27429;BME280;14881;48.092;11.574;2022-09-09T08:45:03;95308.31;;;17.14;100.00
27429;BME280;14881;48.092;11.574;2022-09-09T08:47:39;95306.44;;;17.06;100.00
27429;BME280;14881;48.092;11.574;2022-09-09T08:50:19;95307.75;;;17.00;100.00
27429;BME280;14881;48.092;11.574;2022-09-09T08:52:59;95308.00;;;16.95;100.00
27429;BME280;14881;48.092;11.574;2022-09-09T08:55:38;95301.47;;;16.99;100.00
27429;BME280;14881;48.092;11.574;2022-09-09T08:58:12;95310.03;;;16.98;100.00
27429;BME280;14881;48.092;11.574;2022-09-09T09:00:50;95306.03;;;16.95;100.00
27429;BME280;14881;48.092;11.574;2022-09-09T09:03:32;95309.44;;;16.92;100.00
27429;BME280;14881;48.092;11.574;2022-09-09T09:06:08;95308.00;;;16.95;100.00
27429;BME280;14881;48.092;11.574;2022-09-09T09:08:45;95307.84;;;16.91;100.00
27429;BME280;14881;48.092;11.574;2022-09-09T09:11:15;95305.44;;;16.90;100.00
27429;BME280;14881;48.092;11.574;2022-09-09T09:13:47;95313.25;;;17.00;100.00
27429;BME280;14881;48.092;11.574;2022-09-09T09:16:23;95318.22;;;17.07;100.00
27429;BME280;14881;48.092;11.574;2022-09-09T09:18:54;95311.78;;;17.02;100.00
27429;BME280;14881;48.092;11.574;2022-09-09T09:21:30;95304.03;;;17.04;100.00
27429;BME280;14881;48.092;11.574;2022-09-09T09:24:00;95315.63;;;17.10;100.00
27429;BME280;14881;48.092;11.574;2022-09-09T09:26:32;95309.16;;;17.27;100.00
27429;BME280;14881;48.092;11.574;2022-09-09T09:29:09;95309.56;;;17.50;100.00
27429;BME280;14881;48.092;11.574;2022-09-09T09:31:41;95309.97;;;17.60;100.00
27429;BME280;14881;48.092;11.574;2022-09-09T09:34:09;95306.25;;;17.65;100.00
27429;BME280;14881;48.092;11.574;2022-09-09T09:36:40;95304.19;;;17.74;100.00
27429;BME280;14881;48.092;11.574;2022-09-09T09:39:09;95310.31;;;17.59;100.00
27429;BME280;14881;48.092;11.574;2022-09-09T09:41:57;95311.88;;;17.48;100.00
27429;BME280;14881;48.092;11.574;2022-09-09T09:44:33;95310.16;;;17.43;100.00
27429;BME280;14881;48.092;11.574;2022-09-09T09:47:07;95309.88;;;17.36;100.00
27429;BME280;14881;48.092;11.574;2022-09-09T09:49:36;95318.44;;;17.34;100.00
27429;BME280;14881;48.092;11.574;2022-09-09T09:52:05;95322.00;;;17.35;100.00
27429;BME280;14881;48.092;11.574;2022-09-09T09:54:37;95321.63;;;17.24;100.00
27429;BME280;14881;48.092;11.574;2022-09-09T09:57:10;95319.53;;;17.21;100.00
27429;BME280;14881;48.092;11.574;2022-09-09T09:59:39;95326.25;;;17.12;100.00
27429;BME280;14881;48.092;11.574;2022-09-09T10:02:16;95319.63;;;17.13;100.00
27429;BME280;14881;48.092;11.574;2022-09-09T10:04:44;95322.72;;;17.11;100.00
27429;BME280;14881;48.092;11.574;2022-09-09T10:07:18;95321.34;;;17.17;100.00
27429;BME280;14881;48.092;11.574;2022-09-09T10:09:50;95316.19;;;17.16;100.00
27429;BME280;14881;48.092;11.574;2022-09-09T10:12:38;95312.88;;;17.10;100.00
27429;BME280;14881;48.092;11.574;2022-09-09T10:15:24;95318.41;;;17.01;100.00
27429;BME280;14881;48.092;11.574;2022-09-09T10:18:02;95317.34;;;16.94;100.00
27429;BME280;14881;48.092;11.574;2022-09-09T10:20:38;95319.34;;;16.85;100.00
27429;BME280;14881;48.092;11.574;2022-09-09T10:23:21;95321.06;;;16.68;100.00
27429;BME280;14881;48.092;11.574;2022-09-09T10:26:03;95323.38;;;16.58;100.00
27429;BME280;14881;48.092;11.574;2022-09-09T10:28:53;95320.50;;;16.54;100.00
27429;BME280;14881;48.092;11.574;2022-09-09T10:31:32;95321.91;;;16.60;100.00
27429;BME280;14881;48.092;11.574;2022-09-09T10:34:15;95316.88;;;16.62;100.00
27429;BME280;14881;48.092;11.574;2022-09-09T10:36:49;95314.59;;;16.73;100.00
27429;BME280;14881;48.092;11.574;2022-09-09T10:39:28;95319.69;;;16.83;100.00
27429;BME280;14881;48.092;11.574;2022-09-09T10:42:04;95317.81;;;16.75;100.00
27429;BME280;14881;48.092;11.574;2022-09-09T10:44:54;95325.97;;;16.84;100.00
27429;BME280;14881;48.092;11.574;2022-09-09T10:47:42;95327.19;;;16.74;100.00
27429;BME280;14881;48.092;11.574;2022-09-09T10:50:29;95317.00;;;16.75;100.00
27429;BME280;14881;48.092;11.574;2022-09-09T10:53:35;95324.97;;;16.88;100.00
27429;BME280;14881;48.092;11.574;2022-09-09T10:56:07;95308.31;;;16.93;100.00
27429;BME280;14881;48.092;11.574;2022-09-09T10:58:40;95318.16;;;16.94;100.00
27429;BME280;14881;48.092;11.574;2022-09-09T11:01:13;95308.66;;;17.13;100.00
27429;BME280;14881;48.092;11.574;2022-09-09T11:03:48;95321.28;;;17.26;100.00
27429;BME280;14881;48.092;11.574;2022-09-09T11:06:21;95310.38;;;17.50;100.00
27429;BME280;14881;48.092;11.574;2022-09-09T11:08:52;95312.31;;;17.50;100.00
27429;BME280;14881;48.092;11.574;2022-09-09T11:11:28;95318.69;;;17.62;100.00
27429;BME280;14881;48.092;11.574;2022-09-09T11:13:59;95317.72;;;17.79;100.00
27429;BME280;14881;48.092;11.574;2022-09-09T11:16:32;95310.53;;;17.87;100.00
27429;BME280;14881;48.092;11.574;2022-09-09T11:19:04;95301.72;;;18.05;100.00
27429;BME280;14881;48.092;11.574;2022-09-09T11:21:43;95306.69;;;18.12;100.00
27429;BME280;14881;48.092;11.574;2022-09-09T11:24:16;95307.47;;;18.13;100.00
27429;BME280;14881;48.092;11.574;2022-09-09T11:26:49;95307.81;;;18.23;100.00
27429;BME280;14881;48.092;11.574;2022-09-09T11:29:39;95307.25;;;18.42;100.00
27429;BME280;14881;48.092;11.574;2022-09-09T11:32:22;95303.72;;;18.29;100.00
27429;BME280;14881;48.092;11.574;2022-09-09T11:35:17;95299.81;;;18.42;100.00
27429;BME280;14881;48.092;11.574;2022-09-09T11:38:01;95305.19;;;18.27;100.00
27429;BME280;14881;48.092;11.574;2022-09-09T11:40:33;95297.28;;;18.37;100.00
27429;BME280;14881;48.092;11.574;2022-09-09T11:43:03;95298.78;;;18.59;100.00
27429;BME280;14881;48.092;11.574;2022-09-09T11:45:33;95301.53;;;18.59;100.00
27429;BME280;14881;48.092;11.574;2022-09-09T11:48:05;95306.91;;;18.31;100.00
27429;BME280;14881;48.092;11.574;2022-09-09T11:51:00;95297.97;;;18.59;100.00
27429;BME280;14881;48.092;11.574;2022-09-09T11:53:28;95302.47;;;18.63;100.00
27429;BME280;14881;48.092;11.574;2022-09-09T11:56:01;95299.44;;;18.81;100.00
27429;BME280;14881;48.092;11.574;2022-09-09T11:58:38;95294.59;;;18.90;100.00
27429;BME280;14881;48.092;11.574;2022-09-09T12:01:15;95294.47;;;18.98;100.00
27429;BME280;14881;48.092;11.574;2022-09-09T12:03:48;95297.00;;;18.91;100.00
27429;BME280;14881;48.092;11.574;2022-09-09T12:06:24;95299.94;;;19.10;100.00
27429;BME280;14881;48.092;11.574;2022-09-09T12:08:56;95295.47;;;19.46;100.00
27429;BME280;14881;48.092;11.574;2022-09-09T12:11:27;95293.66;;;19.66;100.00
27429;BME280;14881;48.092;11.574;2022-09-09T12:13:58;95302.56;;;19.75;100.00
27429;BME280;14881;48.092;11.574;2022-09-09T12:16:32;95296.72;;;19.48;100.00
27429;BME280;14881;48.092;11.574;2022-09-09T12:19:06;95286.69;;;19.28;100.00
27429;BME280;14881;48.092;11.574;2022-09-09T12:21:40;95304.81;;;19.29;100.00
27429;BME280;14881;48.092;11.574;2022-09-09T12:24:11;95295.66;;;19.25;100.00
27429;BME280;14881;48.092;11.574;2022-09-09T12:26:43;95288.81;;;19.07;100.00
27429;BME280;14881;48.092;11.574;2022-09-09T12:29:24;95284.44;;;19.18;100.00
27429;BME280;14881;48.092;11.574;2022-09-09T12:32:01;95287.00;;;19.39;100.00
27429;BME280;14881;48.092;11.574;2022-09-09T12:34:37;95297.50;;;19.49;100.00
27429;BME280;14881;48.092;11.574;2022-09-09T12:37:15;95285.81;;;19.52;100.00
27429;BME280;14881;48.092;11.574;2022-09-09T12:39:48;95281.63;;;19.30;100.00
27429;BME280;14881;48.092;11.574;2022-09-09T12:42:20;95279.13;;;19.25;100.00
27429;BME280;14881;48.092;11.574;2022-09-09T12:44:52;95281.88;;;19.25;100.00
27429;BME280;14881;48.092;11.574;2022-09-09T12:47:22;95278.13;;;19.45;100.00
27429;BME280;14881;48.092;11.574;2022-09-09T12:49:55;95271.63;;;19.66;100.00
27429;BME280;14881;48.092;11.574;2022-09-09T12:52:30;95269.44;;;19.87;100.00
27429;BME280;14881;48.092;11.574;2022-09-09T12:55:02;95261.66;;;19.77;100.00
27429;BME280;14881;48.092;11.574;2022-09-09T12:57:35;95271.44;;;19.74;100.00
27429;BME280;14881;48.092;11.574;2022-09-09T13:00:07;95260.38;;;19.59;100.00
27429;BME280;14881;48.092;11.574;2022-09-09T13:02:45;95269.00;;;19.29;100.00
27429;BME280;14881;48.092;11.574;2022-09-09T13:05:20;95257.34;;;19.20;100.00
27429;BME280;14881;48.092;11.574;2022-09-09T13:07:49;95259.78;;;19.09;100.00
27429;BME280;14881;48.092;11.574;2022-09-09T13:10:24;95266.31;;;18.77;100.00